createdAt,value
2018-12-24T00:00:40.916Z,100799.60
2018-12-24T00:01:18.235Z,100806.34
2018-12-24T00:01:56.069Z,100805.28
2018-12-24T00:02:33.510Z,100800.96
2018-12-24T00:03:33.870Z,100805.52
2018-12-24T00:04:39.300Z,100805.52
2018-12-24T00:05:15.919Z,100805.79
2018-12-24T00:05:52.673Z,100804.42
2018-12-24T00:06:29.425Z,100810.34
2018-12-24T00:07:06.016Z,100804.39
2018-12-24T00:07:42.710Z,100809.76
2018-12-24T00:08:19.125Z,100812.72
2018-12-24T00:09:13.957Z,100814.32
2018-12-24T00:09:52.025Z,100810.00
2018-12-24T00:10:28.664Z,100812.67
2018-12-24T00:11:43.650Z,100815.12
2018-12-24T00:12:30.479Z,100816.45
2018-12-24T00:14:45.252Z,100820.19
2018-12-24T00:15:21.950Z,100817.75
2018-12-24T00:16:19.505Z,100815.32
2018-12-24T00:16:56.518Z,100821.23
2018-12-24T00:17:43.756Z,100832.27
2018-12-24T00:18:59.142Z,100830.10
2018-12-24T00:19:36.093Z,100829.28
2018-12-24T00:20:33.078Z,100832.50
2018-12-24T00:22:21.748Z,100830.08
2018-12-24T00:22:58.426Z,100832.78
2018-12-24T00:23:35.097Z,100834.91
2018-12-24T00:24:31.561Z,100830.04
2018-12-24T00:25:08.945Z,100831.91
2018-12-24T00:26:15.294Z,100826.50
2018-12-24T00:26:51.884Z,100831.61
2018-12-24T00:28:06.867Z,100825.64
2018-12-24T00:28:43.427Z,100827.77
2018-12-24T00:31:49.597Z,100836.89
2018-12-24T00:32:26.122Z,100840.63
2018-12-24T00:33:02.771Z,100837.36
2018-12-24T00:33:39.488Z,100833.84
2018-12-24T00:34:16.221Z,100844.31
2018-12-24T00:35:14.979Z,100839.18
2018-12-24T00:35:51.521Z,100838.61
2018-12-24T00:36:28.164Z,100835.38
2018-12-24T00:37:43.124Z,100836.95
2018-12-24T00:38:49.137Z,100840.98
2018-12-24T00:39:25.688Z,100840.15
2018-12-24T00:40:02.432Z,100837.94
2018-12-24T00:40:39.169Z,100832.80
2018-12-24T00:41:16.330Z,100836.28
2018-12-24T00:42:31.533Z,100836.57
2018-12-24T00:43:08.510Z,100838.44
2018-12-24T00:43:45.107Z,100838.13
2018-12-24T00:44:22.248Z,100838.89
2018-12-24T00:46:45.589Z,100841.28
2018-12-24T00:47:22.306Z,100838.81
2018-12-24T00:47:58.977Z,100842.80
2018-12-24T00:48:35.797Z,100839.84
2018-12-24T00:49:32.559Z,100839.01
2018-12-24T00:50:09.294Z,100836.53
2018-12-24T00:50:46.304Z,100845.69
2018-12-24T00:54:15.704Z,100848.27
2018-12-24T00:56:00.575Z,100853.86
2018-12-24T00:56:37.483Z,100856.75
2018-12-24T00:57:14.278Z,100850.77
2018-12-24T00:59:34.264Z,100858.25
2018-12-24T01:00:30.698Z,100858.69
2018-12-24T01:01:37.023Z,100852.97
2018-12-24T01:03:30.258Z,100853.95
2018-12-24T01:04:07.007Z,100858.77
2018-12-24T01:04:44.716Z,100856.83
2018-12-24T01:05:39.686Z,100852.95
2018-12-24T01:06:37.166Z,100852.95
2018-12-24T01:07:16.537Z,100855.36
2018-12-24T01:08:59.902Z,100855.53
2018-12-24T01:12:40.017Z,100849.66
2018-12-24T01:13:36.544Z,100859.25
2018-12-24T01:14:44.538Z,100856.80
2018-12-24T01:15:31.695Z,100863.17
2018-12-24T01:16:08.352Z,100863.17
2018-12-24T01:17:03.459Z,100856.38
2018-12-24T01:17:58.447Z,100856.03
2018-12-24T01:19:04.697Z,100856.03
2018-12-24T01:19:51.921Z,100858.59
2018-12-24T01:20:28.580Z,100858.59
2018-12-24T01:22:23.326Z,100868.16
2018-12-24T01:23:00.308Z,100868.37
2018-12-24T01:24:57.229Z,100856.09
2018-12-24T01:25:34.104Z,100856.09
2018-12-24T01:27:26.733Z,100859.20
2018-12-24T01:28:13.401Z,100871.79
2018-12-24T01:29:01.856Z,100874.43
2018-12-24T01:29:48.822Z,100870.69
2018-12-24T01:30:35.461Z,100869.77
2018-12-24T01:31:22.074Z,100869.52
2018-12-24T01:32:08.805Z,100873.48
2018-12-24T01:32:56.020Z,100878.04
2018-12-24T01:33:50.857Z,100873.23
2018-12-24T01:34:27.525Z,100877.99
2018-12-24T01:35:04.423Z,100873.98
2018-12-24T01:36:01.014Z,100873.98
2018-12-24T01:38:46.383Z,100869.82
2018-12-24T01:39:59.768Z,100869.82
2018-12-24T01:40:46.160Z,100889.03
2018-12-24T01:41:32.998Z,100892.24
2018-12-24T01:42:48.086Z,100892.24
2018-12-24T01:43:54.633Z,100881.41
2018-12-24T01:44:41.116Z,100891.53
2018-12-24T01:47:12.544Z,100894.02
2018-12-24T01:47:58.873Z,100880.63
2018-12-24T01:49:14.003Z,100880.63
2018-12-24T01:50:20.786Z,100900.92
2018-12-24T01:50:57.285Z,100888.93
2018-12-24T01:52:02.133Z,100892.84
2018-12-24T01:54:15.103Z,100898.45
2018-12-24T01:55:05.885Z,100898.45
2018-12-24T01:56:21.164Z,100890.81
2018-12-24T01:57:26.205Z,100895.50
2018-12-24T01:58:41.438Z,100894.72
2018-12-24T02:01:15.311Z,100902.20
2018-12-24T02:02:19.428Z,100901.37
2018-12-24T02:04:29.959Z,100890.80
2018-12-24T02:05:06.634Z,100893.73
2018-12-24T02:07:29.757Z,100891.15
2018-12-24T02:08:34.739Z,100888.89
2018-12-24T02:09:39.638Z,100893.70
2018-12-24T02:10:16.439Z,100895.11
2018-12-24T02:14:14.095Z,100894.45
2018-12-24T02:15:19.081Z,100897.34
2018-12-24T02:15:56.122Z,100899.20
2018-12-24T02:18:16.325Z,100897.34
2018-12-24T02:18:53.096Z,100896.95
2018-12-24T02:21:06.025Z,100898.57
2018-12-24T02:23:28.707Z,100890.80
2018-12-24T02:24:33.814Z,100888.08
2018-12-24T02:25:28.876Z,100891.67
2018-12-24T02:26:05.704Z,100886.85
2018-12-24T02:27:20.698Z,100885.12
2018-12-24T02:27:57.486Z,100889.67
2018-12-24T02:29:12.647Z,100883.41
2018-12-24T02:29:59.477Z,100885.22
2018-12-24T02:30:38.399Z,100895.39
2018-12-24T02:31:15.236Z,100890.69
2018-12-24T02:31:54.327Z,100886.30
2018-12-24T02:32:31.332Z,100890.55
2018-12-24T02:34:33.196Z,100895.84
2018-12-24T02:35:09.811Z,100892.05
2018-12-24T02:36:52.795Z,100886.47
2018-12-24T02:37:29.392Z,100887.45
2018-12-24T02:39:24.578Z,100890.02
2018-12-24T02:40:19.499Z,100889.88
2018-12-24T02:41:16.011Z,100892.23
2018-12-24T02:41:52.724Z,100887.05
2018-12-24T02:44:59.021Z,100893.02
2018-12-24T02:45:36.062Z,100889.98
2018-12-24T02:46:42.591Z,100893.17
2018-12-24T02:47:19.344Z,100889.45
2018-12-24T02:48:15.923Z,100895.31
2018-12-24T02:48:52.986Z,100893.30
2018-12-24T02:51:05.382Z,100897.20
2018-12-24T02:52:12.036Z,100897.83
2018-12-24T02:53:28.571Z,100893.99
2018-12-24T02:54:35.155Z,100896.39
2018-12-24T02:57:06.460Z,100894.48
2018-12-24T02:58:12.150Z,100886.72
2018-12-24T02:59:17.161Z,100899.50
2018-12-24T03:00:12.389Z,100885.84
2018-12-24T03:01:17.283Z,100888.42
2018-12-24T03:01:54.186Z,100886.96
2018-12-24T03:02:30.756Z,100888.56
2018-12-24T03:04:42.640Z,100897.16
2018-12-24T03:06:56.246Z,100890.79
2018-12-24T03:08:01.119Z,100887.34
2018-12-24T03:10:11.659Z,100890.55
2018-12-24T03:10:58.103Z,100880.17
2018-12-24T03:13:29.471Z,100880.61
2018-12-24T03:14:36.135Z,100881.02
2018-12-24T03:15:22.900Z,100885.67
2018-12-24T03:17:34.389Z,100881.13
2018-12-24T03:18:11.418Z,100883.97
2018-12-24T03:19:08.142Z,100879.18
2018-12-24T03:19:45.110Z,100877.43
2018-12-24T03:21:58.556Z,100879.06
2018-12-24T03:22:35.342Z,100879.08
2018-12-24T03:24:20.289Z,100875.98
2018-12-24T03:24:56.856Z,100882.15
2018-12-24T03:28:25.363Z,100874.71
2018-12-24T03:30:37.288Z,100869.99
2018-12-24T03:31:50.804Z,100872.10
2018-12-24T03:32:55.809Z,100870.58
2018-12-24T03:34:02.767Z,100866.18
2018-12-24T03:36:14.414Z,100865.86
2018-12-24T03:37:19.320Z,100867.61
2018-12-24T03:38:27.582Z,100872.33
2018-12-24T03:39:15.119Z,100862.33
2018-12-24T03:39:51.829Z,100861.78
2018-12-24T03:42:05.816Z,100867.64
2018-12-24T03:42:42.781Z,100858.97
2018-12-24T03:43:19.764Z,100863.04
2018-12-24T03:43:56.419Z,100861.52
2018-12-24T03:44:33.179Z,100861.91
2018-12-24T03:45:09.799Z,100866.06
2018-12-24T03:46:07.586Z,100864.14
2018-12-24T03:46:54.488Z,100861.52
2018-12-24T03:47:31.430Z,100859.61
2018-12-24T03:48:08.358Z,100853.41
2018-12-24T03:48:45.108Z,100855.97
2018-12-24T03:50:55.227Z,100848.40
2018-12-24T03:51:41.964Z,100845.04
2018-12-24T03:52:18.737Z,100843.55
2018-12-24T03:52:55.368Z,100845.62
2018-12-24T03:54:47.064Z,100842.18
2018-12-24T03:55:23.819Z,100832.34
2018-12-24T03:56:00.363Z,100833.14
2018-12-24T03:56:37.109Z,100835.38
2018-12-24T03:57:13.834Z,100840.27
2018-12-24T03:57:50.464Z,100834.73
2018-12-24T03:59:05.517Z,100835.53
2018-12-24T03:59:53.408Z,100832.73
2018-12-24T04:00:30.248Z,100832.17
2018-12-24T04:01:06.912Z,100821.85
2018-12-24T04:02:03.252Z,100821.77
2018-12-24T04:02:49.975Z,100824.25
2018-12-24T04:04:54.888Z,100825.45
2018-12-24T04:05:31.479Z,100824.42
2018-12-24T04:06:08.085Z,100825.06
2018-12-24T04:06:44.800Z,100826.58
2018-12-24T04:07:21.370Z,100826.81
2018-12-24T04:07:58.090Z,100822.82
2018-12-24T04:08:34.624Z,100826.81
2018-12-24T04:09:11.243Z,100815.14
2018-12-24T04:10:12.421Z,100819.93
2018-12-24T04:10:49.143Z,100823.77
2018-12-24T04:11:25.814Z,100819.13
2018-12-24T04:12:02.483Z,100818.02
2018-12-24T04:12:39.320Z,100815.61
2018-12-24T04:13:52.731Z,100817.69
2018-12-24T04:14:57.539Z,100817.86
2018-12-24T04:15:34.288Z,100809.77
2018-12-24T04:16:10.963Z,100810.00
2018-12-24T04:16:47.767Z,100810.75
2018-12-24T04:17:24.289Z,100816.19
2018-12-24T04:18:00.974Z,100812.34
2018-12-24T04:18:37.554Z,100815.06
2018-12-24T04:19:14.138Z,100809.39
2018-12-24T04:20:10.869Z,100810.19
2018-12-24T04:21:24.303Z,100813.70
2018-12-24T04:22:01.231Z,100812.99
2018-12-24T04:22:38.065Z,100808.25
2018-12-24T04:23:15.015Z,100806.98
2018-12-24T04:26:42.109Z,100803.61
2018-12-24T04:27:48.690Z,100797.05
2018-12-24T04:28:25.244Z,100794.80
2018-12-24T04:29:40.182Z,100791.47
2018-12-24T04:30:35.377Z,100789.22
2018-12-24T04:32:46.656Z,100787.61
2018-12-24T04:33:53.675Z,100788.09
2018-12-24T04:34:48.596Z,100779.54
2018-12-24T04:35:25.110Z,100785.70
2018-12-24T04:36:31.567Z,100779.93
2018-12-24T04:37:37.925Z,100778.72
2018-12-24T04:38:51.708Z,100780.41
2018-12-24T04:39:28.700Z,100781.85
2018-12-24T04:40:07.893Z,100777.30
2018-12-24T04:40:44.819Z,100773.22
2018-12-24T04:41:59.934Z,100770.50
2018-12-24T04:43:04.771Z,100775.05
2018-12-24T04:44:09.688Z,100772.98
2018-12-24T04:45:14.648Z,100768.42
2018-12-24T04:46:27.683Z,100767.71
2018-12-24T04:47:32.529Z,100768.19
2018-12-24T04:50:03.791Z,100765.31
2018-12-24T04:51:08.727Z,100758.91
2018-12-24T04:52:13.595Z,100759.14
2018-12-24T04:53:19.968Z,100758.19
2018-12-24T04:53:56.592Z,100751.56
2018-12-24T04:54:33.351Z,100748.05
2018-12-24T04:55:10.006Z,100753.81
2018-12-24T04:55:46.668Z,100745.33
2018-12-24T04:56:23.332Z,100749.31
2018-12-24T04:57:00.014Z,100752.04
2018-12-24T04:58:14.921Z,100744.91
2018-12-24T05:00:19.090Z,100749.20
2018-12-24T05:01:25.797Z,100739.69
2018-12-24T05:02:05.912Z,100739.45
2018-12-24T05:03:12.769Z,100747.85
2018-12-24T05:06:05.713Z,100738.98
2018-12-24T05:06:42.435Z,100739.78
2018-12-24T05:07:57.459Z,100735.61
2018-12-24T05:09:19.864Z,100728.09
2018-12-24T05:10:08.383Z,100724.52
2018-12-24T05:12:21.466Z,100718.61
2018-12-24T05:14:07.923Z,100707.16
2018-12-24T05:14:59.626Z,100713.25
2018-12-24T05:16:05.079Z,100709.47
2018-12-24T05:16:41.903Z,100714.97
2018-12-24T05:19:15.349Z,100705.22
2018-12-24T05:21:34.990Z,100708.55
2018-12-24T05:22:39.878Z,100700.86
2018-12-24T05:23:16.616Z,100702.93
2018-12-24T05:23:53.303Z,100700.39
2018-12-24T05:24:29.995Z,100701.10
2018-12-24T05:25:06.652Z,100698.62
2018-12-24T05:25:43.203Z,100701.34
2018-12-24T05:28:11.668Z,100696.60
2018-12-24T05:29:16.556Z,100698.47
2018-12-24T05:31:22.574Z,100693.83
2018-12-24T05:32:27.462Z,100690.45
2018-12-24T05:33:32.388Z,100692.05
2018-12-24T05:34:37.266Z,100687.87
2018-12-24T05:35:43.600Z,100684.20
2018-12-24T05:36:48.493Z,100690.91
2018-12-24T05:37:53.401Z,100686.53
2018-12-24T05:38:58.284Z,100684.05
2018-12-24T05:40:03.201Z,100688.93
2018-12-24T05:41:08.126Z,100684.52
2018-12-24T05:41:55.056Z,100681.56
2018-12-24T05:43:08.346Z,100683.58
2018-12-24T05:44:21.468Z,100683.39
2018-12-24T05:45:26.347Z,100684.98
2018-12-24T05:46:31.252Z,100678.28
2018-12-24T05:50:10.404Z,100676.04
2018-12-24T05:51:15.377Z,100663.58
2018-12-24T05:52:30.514Z,100660.44
2018-12-24T05:53:36.444Z,100662.83
2018-12-24T05:55:56.675Z,100656.99
2018-12-24T05:57:01.583Z,100658.59
2018-12-24T05:58:06.488Z,100659.09
2018-12-24T05:59:19.603Z,100656.74
2018-12-24T06:00:24.535Z,100651.06
2018-12-24T06:02:55.784Z,100645.95
2018-12-24T06:04:00.733Z,100638.41
2018-12-24T06:05:05.638Z,100643.23
2018-12-24T06:06:10.558Z,100638.02
2018-12-24T06:08:20.895Z,100638.26
2018-12-24T06:09:25.855Z,100627.70
2018-12-24T06:10:30.811Z,100626.91
2018-12-24T06:11:43.914Z,100624.81
2018-12-24T06:12:57.249Z,100619.86
2018-12-24T06:14:12.207Z,100623.95
2018-12-24T06:15:18.757Z,100620.43
2018-12-24T06:15:55.338Z,100616.02
2018-12-24T06:18:07.784Z,100611.77
2018-12-24T06:19:12.659Z,100608.17
2018-12-24T06:20:26.012Z,100600.51
2018-12-24T06:21:40.987Z,100600.19
2018-12-24T06:22:45.880Z,100607.38
2018-12-24T06:23:50.758Z,100597.23
2018-12-24T06:25:06.047Z,100600.32
2018-12-24T06:27:17.294Z,100593.13
2018-12-24T06:28:23.438Z,100592.16
2018-12-24T06:30:15.322Z,100585.66
2018-12-24T06:31:21.499Z,100587.48
2018-12-24T06:32:26.362Z,100583.27
2018-12-24T06:33:39.783Z,100574.73
2018-12-24T06:34:44.687Z,100576.02
2018-12-24T06:35:58.126Z,100580.97
2018-12-24T06:37:02.856Z,100573.05
2018-12-24T06:39:21.126Z,100561.92
2018-12-24T06:40:34.559Z,100560.39
2018-12-24T06:45:16.613Z,100551.70
2018-12-24T06:46:21.536Z,100546.73
2018-12-24T06:47:26.505Z,100543.44
2018-12-24T06:48:31.375Z,100542.17
2018-12-24T06:49:44.651Z,100536.97
2018-12-24T06:50:21.275Z,100533.69
2018-12-24T06:51:16.645Z,100536.97
2018-12-24T06:53:49.605Z,100528.34
2018-12-24T06:54:54.478Z,100526.09
2018-12-24T06:57:28.028Z,100528.41
2018-12-24T06:58:32.943Z,100517.99
2018-12-24T06:59:37.765Z,100520.31
2018-12-24T07:02:04.698Z,100520.55
2018-12-24T07:04:39.442Z,100502.80
2018-12-24T07:05:52.509Z,100498.72
2018-12-24T07:07:05.803Z,100502.13
2018-12-24T07:08:10.669Z,100500.30
2018-12-24T07:09:16.035Z,100497.59
2018-12-24T07:10:29.388Z,100495.89
2018-12-24T07:11:34.205Z,100493.57
2018-12-24T07:12:31.174Z,100493.44
2018-12-24T07:14:42.406Z,100489.13
2018-12-24T07:15:47.359Z,100484.81
2018-12-24T07:17:00.752Z,100479.61
2018-12-24T07:18:05.699Z,100483.22
2018-12-24T07:19:10.562Z,100481.16
2018-12-24T07:20:15.483Z,100472.34
2018-12-24T07:24:14.506Z,100474.63
2018-12-24T07:25:19.414Z,100474.45
2018-12-24T07:26:25.931Z,100471.87
2018-12-24T07:27:30.804Z,100470.66
2018-12-24T07:28:44.148Z,100475.67
2018-12-24T07:31:15.357Z,100470.83
2018-12-24T07:33:26.868Z,100462.67
2018-12-24T07:34:32.541Z,100460.45
2018-12-24T07:38:17.899Z,100454.34
2018-12-24T07:39:24.729Z,100452.52
2018-12-24T07:40:29.649Z,100451.00
2018-12-24T07:41:43.005Z,100445.42
2018-12-24T07:42:47.887Z,100444.06
2018-12-24T07:46:05.886Z,100438.30
2018-12-24T07:47:10.784Z,100435.02
2018-12-24T07:48:15.788Z,100437.08
2018-12-24T07:49:22.745Z,100432.33
2018-12-24T07:50:36.151Z,100434.48
2018-12-24T07:51:12.816Z,100434.61
2018-12-24T07:51:59.502Z,100437.90
2018-12-24T07:53:14.666Z,100432.33
2018-12-24T07:55:42.915Z,100430.27
2018-12-24T07:56:39.965Z,100432.86
2018-12-24T07:57:44.777Z,100430.48
2018-12-24T08:00:23.008Z,100426.00
2018-12-24T08:05:15.206Z,100412.73
2018-12-24T08:06:20.148Z,100417.84
2018-12-24T08:07:25.045Z,100414.16
2018-12-24T08:08:38.446Z,100421.85
2018-12-24T08:09:43.361Z,100419.44
2018-12-24T08:12:14.445Z,100418.73
2018-12-24T08:13:19.452Z,100416.91
2018-12-24T08:14:32.719Z,100412.04
2018-12-24T08:16:37.737Z,100420.80
2018-12-24T08:20:36.330Z,100416.91
2018-12-24T08:22:38.039Z,100414.59
2018-12-24T08:24:37.371Z,100416.98
2018-12-24T08:25:44.235Z,100416.98
2018-12-24T08:26:52.310Z,100417.94
2018-12-24T08:27:55.778Z,100412.93
2018-12-24T08:29:00.708Z,100421.88
2018-12-24T08:30:05.611Z,100420.72
2018-12-24T08:31:19.056Z,100413.15
2018-12-24T08:31:55.683Z,100417.41
2018-12-24T08:33:10.629Z,100417.52
2018-12-24T08:34:23.828Z,100412.41
2018-12-24T08:38:21.350Z,100419.30
2018-12-24T08:39:16.531Z,100412.80
2018-12-24T08:40:29.943Z,100415.27
2018-12-24T08:41:34.901Z,100414.24
2018-12-24T08:42:41.101Z,100423.17
2018-12-24T08:43:46.061Z,100418.80
2018-12-24T08:44:52.311Z,100414.91
2018-12-24T08:45:57.197Z,100416.21
2018-12-24T08:47:10.636Z,100412.61
2018-12-24T08:48:24.107Z,100416.21
2018-12-24T08:49:02.722Z,100412.05
2018-12-24T08:51:12.978Z,100416.13
2018-12-24T08:52:17.953Z,100422.67
2018-12-24T08:54:36.405Z,100415.89
2018-12-24T08:57:09.313Z,100415.73
2018-12-24T08:58:15.882Z,100416.53
2018-12-24T08:59:20.804Z,100419.02
2018-12-24T09:01:41.101Z,100403.28
2018-12-24T09:05:20.646Z,100401.93
2018-12-24T09:06:25.505Z,100401.31
2018-12-24T09:08:37.012Z,100396.70
2018-12-24T09:09:41.915Z,100400.03
2018-12-24T09:10:46.885Z,100394.52
2018-12-24T09:12:01.916Z,100398.34
2018-12-24T09:13:06.843Z,100401.94
2018-12-24T09:14:11.789Z,100398.52
2018-12-24T09:15:16.955Z,100400.99
2018-12-24T09:16:32.122Z,100400.20
2018-12-24T09:18:45.471Z,100411.22
2018-12-24T09:20:56.738Z,100413.52
2018-12-24T09:22:10.123Z,100414.72
2018-12-24T09:23:15.056Z,100415.36
2018-12-24T09:25:43.714Z,100424.20
2018-12-24T09:26:20.290Z,100432.70
2018-12-24T09:26:56.900Z,100424.48
2018-12-24T09:27:33.662Z,100427.32
2018-12-24T09:28:10.393Z,100433.86
2018-12-24T09:28:47.022Z,100433.37
2018-12-24T09:29:23.436Z,100421.58
2018-12-24T09:30:00.042Z,100423.80
2018-12-24T09:30:37.263Z,100425.55
2018-12-24T09:31:14.595Z,100432.41
2018-12-24T09:31:51.335Z,100428.34
2018-12-24T09:32:29.144Z,100427.94
2018-12-24T09:33:05.759Z,100429.89
2018-12-24T09:33:43.806Z,100432.68
2018-12-24T09:34:20.370Z,100431.88
2018-12-24T09:34:57.325Z,100435.31
2018-12-24T09:36:12.229Z,100437.55
2018-12-24T09:37:17.153Z,100434.83
2018-12-24T09:38:22.058Z,100443.20
2018-12-24T09:39:37.199Z,100442.41
2018-12-24T09:40:16.928Z,100437.22
2018-12-24T09:42:36.858Z,100444.31
2018-12-24T09:43:41.789Z,100448.77
2018-12-24T09:44:58.940Z,100448.68
2018-12-24T09:46:01.680Z,100445.84
2018-12-24T09:47:06.593Z,100449.39
2018-12-24T09:48:11.555Z,100447.80
2018-12-24T09:50:49.856Z,100454.57
2018-12-24T09:51:36.763Z,100450.55
2018-12-24T09:53:49.563Z,100439.38
2018-12-24T09:55:02.966Z,100444.31
2018-12-24T09:55:49.382Z,100449.58
2018-12-24T09:57:04.531Z,100449.58
2018-12-24T09:58:19.698Z,100452.53
2018-12-24T10:00:29.871Z,100440.59
2018-12-24T10:01:16.172Z,100433.72
2018-12-24T10:03:50.955Z,100440.34
2018-12-24T10:04:59.160Z,100443.05
2018-12-24T10:06:15.220Z,100443.05
2018-12-24T10:07:25.272Z,100451.52
2018-12-24T10:08:13.131Z,100441.80
2018-12-24T10:09:26.163Z,100441.80
2018-12-24T10:14:29.315Z,100453.45
2018-12-24T10:18:30.949Z,100470.31
2018-12-24T10:19:35.875Z,100464.72
2018-12-24T10:22:07.602Z,100485.17
2018-12-24T10:23:12.482Z,100494.34
2018-12-24T10:23:59.577Z,100492.75
2018-12-24T10:26:30.775Z,100492.05
2018-12-24T10:27:35.651Z,100492.05
2018-12-24T10:28:40.614Z,100492.19
2018-12-24T10:29:27.542Z,100500.06
2018-12-24T10:30:13.922Z,100502.05
2018-12-24T10:31:00.597Z,100506.34
2018-12-24T10:33:33.697Z,100508.44
2018-12-24T10:34:38.637Z,100496.70
2018-12-24T10:35:43.577Z,100502.17
2018-12-24T10:36:29.877Z,100490.47
2018-12-24T10:39:03.019Z,100498.11
2018-12-24T10:39:50.035Z,100511.25
2018-12-24T10:41:03.079Z,100524.78
2018-12-24T10:42:07.955Z,100524.78
2018-12-24T10:44:39.177Z,100528.27
2018-12-24T10:45:43.952Z,100509.14
2018-12-24T10:47:26.356Z,100530.48
2018-12-24T10:48:31.331Z,100516.61
2018-12-24T10:49:36.299Z,100524.72
2018-12-24T10:51:49.183Z,100536.69
2018-12-24T10:53:02.582Z,100536.69
2018-12-24T10:53:39.264Z,100529.61
2018-12-24T10:54:16.035Z,100529.92
2018-12-24T10:54:52.685Z,100530.72
2018-12-24T10:56:46.089Z,100536.31
2018-12-24T10:57:22.775Z,100536.31
2018-12-24T10:58:17.709Z,100541.02
2018-12-24T10:59:24.329Z,100555.03
2018-12-24T11:00:00.893Z,100555.03
2018-12-24T11:02:29.431Z,100564.01
2018-12-24T11:05:00.653Z,100557.86
2018-12-24T11:06:07.872Z,100557.86
2018-12-24T11:06:55.939Z,100540.58
2018-12-24T11:07:42.669Z,100540.02
2018-12-24T11:08:47.593Z,100540.02
2018-12-24T11:09:52.517Z,100537.38
2018-12-24T11:10:39.498Z,100534.80
2018-12-24T11:11:25.869Z,100533.69
2018-12-24T11:15:10.387Z,100540.45
2018-12-24T11:15:57.632Z,100526.23
2018-12-24T11:16:43.986Z,100538.30
2018-12-24T11:17:30.625Z,100537.50
2018-12-24T11:18:26.999Z,100537.50
2018-12-24T11:19:03.485Z,100538.84
2018-12-24T11:19:49.936Z,100535.98
2018-12-24T11:22:24.242Z,100540.20
2018-12-24T11:23:29.128Z,100550.80
2018-12-24T11:24:15.894Z,100567.58
2018-12-24T11:25:30.890Z,100567.58
2018-12-24T11:26:37.574Z,100576.80
2018-12-24T11:27:52.510Z,100576.80
2018-12-24T11:29:05.855Z,100575.77
2018-12-24T11:31:37.061Z,100580.13
2018-12-24T11:32:43.429Z,100580.94
2018-12-24T11:33:30.496Z,100583.39
2018-12-24T11:34:17.081Z,100602.32
2018-12-24T11:35:03.792Z,100585.79
2018-12-24T11:36:17.191Z,100585.79
2018-12-24T11:37:03.597Z,100593.10
2018-12-24T11:38:19.830Z,100593.10
2018-12-24T11:39:25.743Z,100580.80
2018-12-24T11:40:12.673Z,100599.86
2018-12-24T11:40:49.660Z,100596.05
2018-12-24T11:41:44.639Z,100597.91
2018-12-24T11:42:39.635Z,100602.48
2018-12-24T11:43:34.524Z,100602.48
2018-12-24T11:44:11.403Z,100604.34
2018-12-24T11:45:06.378Z,100611.66
2018-12-24T11:45:44.851Z,100600.72
2018-12-24T11:46:50.948Z,100603.06
2018-12-24T11:47:38.866Z,100605.52
2018-12-24T11:48:15.612Z,100608.39
2018-12-24T11:50:05.842Z,100602.73
2018-12-24T11:50:52.394Z,100606.37
2018-12-24T11:51:32.229Z,100606.37
2018-12-24T11:52:28.240Z,100610.43
2018-12-24T11:54:02.580Z,100605.12
2018-12-24T11:54:39.311Z,100609.19
2018-12-24T11:56:25.510Z,100614.48
2018-12-24T11:57:02.377Z,100623.45
2018-12-24T11:59:10.399Z,100619.25
2018-12-24T11:59:47.267Z,100627.62
2018-12-24T12:00:53.596Z,100627.62
2018-12-24T12:01:40.691Z,100624.27
2018-12-24T12:02:17.321Z,100625.12
2018-12-24T12:02:54.320Z,100625.12
2018-12-24T12:03:35.163Z,100635.08
2018-12-24T12:04:52.244Z,100634.70
2018-12-24T12:05:28.966Z,100634.70
2018-12-24T12:07:59.268Z,100650.56
2018-12-24T12:08:55.812Z,100658.08
2018-12-24T12:09:32.543Z,100658.08
2018-12-24T12:11:37.682Z,100658.89
2018-12-24T12:12:14.250Z,100650.79
2018-12-24T12:13:22.486Z,100646.29
2018-12-24T12:14:35.600Z,100646.67
2018-12-24T12:15:13.676Z,100645.19
2018-12-24T12:16:10.047Z,100647.91
2018-12-24T12:16:46.682Z,100646.56
2018-12-24T12:17:23.503Z,100656.01
2018-12-24T12:18:01.432Z,100657.36
2018-12-24T12:18:38.322Z,100663.30
2018-12-24T12:19:14.938Z,100660.61
2018-12-24T12:20:30.116Z,100666.30
2018-12-24T12:21:07.185Z,100668.20
2018-12-24T12:22:21.597Z,100674.14
2018-12-24T12:24:09.209Z,100673.38
2018-12-24T12:24:48.267Z,100673.38
2018-12-24T12:25:24.887Z,100677.17
2018-12-24T12:26:31.369Z,100685.27
2018-12-24T12:27:18.349Z,100680.53
2018-12-24T12:27:55.135Z,100680.53
2018-12-24T12:30:08.682Z,100687.86
2018-12-24T12:30:45.531Z,100690.31
2018-12-24T12:31:52.202Z,100693.56
2018-12-24T12:32:58.634Z,100693.89
2018-12-24T12:34:04.342Z,100692.61
2018-12-24T12:36:17.543Z,100696.18
2018-12-24T12:38:01.764Z,100702.16
2018-12-24T12:38:38.461Z,100707.27
2018-12-24T12:39:15.389Z,100712.91
2018-12-24T12:39:51.936Z,100710.73
2018-12-24T12:40:28.708Z,100713.46
2018-12-24T12:41:05.422Z,100721.55
2018-12-24T12:41:42.178Z,100726.66
2018-12-24T12:42:18.927Z,100726.66
2018-12-24T12:43:24.750Z,100731.26
2018-12-24T12:44:38.173Z,100729.36
2018-12-24T12:45:51.188Z,100733.95
2018-12-24T12:48:37.338Z,100754.73
2018-12-24T12:50:31.953Z,100763.92
2018-12-24T12:51:08.766Z,100766.94
2018-12-24T12:52:15.909Z,100770.73
2018-12-24T12:53:31.106Z,100771.27
2018-12-24T12:54:10.475Z,100765.91
2018-12-24T12:55:17.038Z,100763.24
2018-12-24T12:57:02.289Z,100765.68
2018-12-24T12:57:39.072Z,100765.42
2018-12-24T13:01:10.500Z,100767.86
2018-12-24T13:01:50.162Z,100773.28
2018-12-24T13:02:56.414Z,100766.28
2018-12-24T13:03:33.310Z,100772.00
2018-12-24T13:04:11.414Z,100772.83
2018-12-24T13:06:35.675Z,100783.33
2018-12-24T13:08:21.481Z,100790.62
2018-12-24T13:08:58.355Z,100793.03
2018-12-24T13:09:36.752Z,100790.05
2018-12-24T13:12:32.869Z,100794.34
2018-12-24T13:13:09.676Z,100797.05
2018-12-24T13:13:46.622Z,100793.83
2018-12-24T13:14:52.311Z,100793.57
2018-12-24T13:15:29.123Z,100789.27
2018-12-24T13:17:42.037Z,100794.66
2018-12-24T13:18:18.730Z,100796.01
2018-12-24T13:21:00.974Z,100793.57
2018-12-24T13:22:14.390Z,100791.70
2018-12-24T13:22:51.205Z,100788.23
2018-12-24T13:24:04.546Z,100791.21
2018-12-24T13:24:41.291Z,100788.52
2018-12-24T13:26:28.235Z,100784.50
2018-12-24T13:27:06.919Z,100785.87
2018-12-24T13:27:43.399Z,100782.91
2018-12-24T13:28:20.093Z,100785.33
2018-12-24T13:28:59.622Z,100792.87
2018-12-24T13:29:38.811Z,100792.33
2018-12-24T13:30:15.725Z,100794.73
2018-12-24T13:30:52.303Z,100793.65
2018-12-24T13:31:29.090Z,100790.41
2018-12-24T13:32:08.728Z,100792.56
2018-12-24T13:33:14.666Z,100802.25
2018-12-24T13:33:51.482Z,100798.21
2018-12-24T13:35:36.003Z,100798.21
2018-12-24T13:36:12.776Z,100802.00
2018-12-24T13:36:49.585Z,100804.70